Airfield :
LOGIN :

Register | Disclaimer

   EN    FR    IT 

 










Legend :    VFR   Marginal VFR   IFR   Intensive IFR   Very Intensive IFR
Visi :
Ceiling :
>= 8 km
>= 3000ft
5 to 8 km
1000 to 3000 ft
1500m to 5 km
500 to 1000 ft
800 to 1500m
200 to 500 ft
< 800m
< 200 ft
Symbols :   Thunderstorms  Fog  Heavy snow  Heavy precipitations  Wind > 20 kt
SIGMETs :     Misc.  Thunderstorms  Icing  Turbulence  Mountain Waves  Volcanic Ashes






- Airport Elevation : 326 ft
- IATA code : LCG


LECO - A Coruna

CURRENT METAR :
  • 200330Z AUTO 17006KT 7000 NCD 04/04 Q1024

EXPIRED METARs :
  • 200300Z AUTO 17006KT 4800 BR NCD 04/04 Q1024
  • 200230Z AUTO 17006KT 4100 BR SCT027 04/04 Q1025
  • 200200Z AUTO 17007KT 4100 BR NCD 04/04 Q1025
  • 200130Z AUTO 18005KT 0900 0300NE R21/P2000 R03/1300U FG VV/// 04/04 Q1025
  • 200100Z AUTO 18005KT 0400 0150NE R21/P2000 R03/0500N FG VV/// 04/04 Q1025

TAF TAF LECO
Valid from the 20 at 03:00 until the 21 at 03:00 UTC


200200Z 2003/2103 VRB05KT 9999 SCT030 TX14/2014Z TN04/2003Z
TEMPO 2003/2009 3000 BR
PROB40
TEMPO 2003/2009 0350 FG VV001
TEMPO 2008/2012 18010KT
PROB30
TEMPO 2015/2021 3000 -RADZ BKN010
TEMPO 2016/2021 02010KT



MET'MAP, your aeronautical weather chart ! - Copyright ORBIFLY December 2007 - Disclaimer

ORBIFLY MET'MAP TEAM :

Programming & Development : Alexandra Zaïnal
Concept & original design : Baudouin d'Aumeries
Assistance for programming : Marc-Olivier Méhu
Technical & hardware support : Manuel Goepfert

Contact : metmap@orbifly.com




SOURCES & CREDITS :

   NOAA